Time;durP1;ratioP1;P1;durP2;ratioP2;P2;SDS_P1;SDS_P2;PMS_P1;PMS_P2;Temp;Humidity;BMP_temperature;BMP_pressure;BME280_temperature;BME280_humidity;BME280_pressure;Samples;Min_cycle;Max_cycle;Signal;HPM_P1;HPM_P2
2023/10/20 00:00:52;;;;;;;21.40;18.00;;;14.60;99.90;;;;;;5019725;28;20235;-86
2023/10/20 00:03:17;;;;;;;26.37;19.70;;;14.60;99.90;;;;;;5036257;28;20173;-87
2023/10/20 00:05:43;;;;;;;21.33;19.00;;;14.60;99.90;;;;;;5003286;28;20629;-86
2023/10/20 00:08:09;;;;;;;24.67;18.30;;;14.70;99.90;;;;;;5003886;28;20186;-86
2023/10/20 00:10:39;;;;;;;21.13;17.73;;;14.60;99.90;;;;;;5035806;28;20562;-87
2023/10/20 00:13:05;;;;;;;23.00;18.97;;;14.60;99.90;;;;;;5036855;28;20177;-87
2023/10/20 00:15:31;;;;;;;23.50;19.90;;;14.70;99.90;;;;;;5036414;28;20440;-88
2023/10/20 00:17:57;;;;;;;26.57;19.80;;;14.60;99.90;;;;;;5054613;28;20742;-90
2023/10/20 00:20:23;;;;;;;23.77;20.07;;;14.70;99.90;;;;;;5037527;28;20475;-90
2023/10/20 00:22:48;;;;;;;23.90;19.97;;;14.70;99.90;;;;;;5055010;28;20248;-89
2023/10/20 00:25:14;;;;;;;23.90;18.87;;;14.70;99.90;;;;;;5025933;28;20908;-88
2023/10/20 00:27:43;;;;;;;23.17;19.97;;;14.70;99.90;;;;;;5004334;28;20200;-88
2023/10/20 00:30:09;;;;;;;27.43;19.80;;;14.70;99.90;;;;;;5019447;28;20193;-89
2023/10/20 00:32:39;;;;;;;28.20;19.00;;;14.70;99.90;;;;;;5002289;28;20978;-89
2023/10/20 00:35:05;;;;;;;25.03;20.70;;;14.70;99.90;;;;;;5017924;28;20604;-89
2023/10/20 00:37:31;;;;;;;20.90;16.93;;;14.70;99.90;;;;;;5034875;28;20518;-88
2023/10/20 00:39:57;;;;;;;24.23;19.43;;;14.70;99.90;;;;;;5017245;28;20861;-89
2023/10/20 00:42:24;;;;;;;24.87;18.57;;;14.70;99.90;;;;;;5017042;28;20417;-89
2023/10/20 00:44:49;;;;;;;21.50;18.07;;;14.60;99.90;;;;;;5017379;28;20796;-89
2023/10/20 00:47:17;;;;;;;23.73;20.80;;;14.60;99.90;;;;;;5029443;28;20441;-85
2023/10/20 00:49:45;;;;;;;22.93;17.73;;;14.70;99.90;;;;;;5054981;28;20193;-87
2023/10/20 00:52:13;;;;;;;20.87;18.67;;;14.60;99.90;;;;;;5036671;28;20416;-88
2023/10/20 00:54:40;;;;;;;24.13;19.53;;;14.60;99.90;;;;;;5022328;28;20554;-88
2023/10/20 00:57:08;;;;;;;20.57;17.33;;;14.60;99.90;;;;;;5020334;28;20498;-89
2023/10/20 00:59:33;;;;;;;19.30;16.83;;;14.60;99.90;;;;;;5027448;28;20423;-89
2023/10/20 01:01:59;;;;;;;22.93;17.03;;;14.60;99.90;;;;;;5025629;28;20950;-89
2023/10/20 01:04:25;;;;;;;22.47;18.40;;;14.50;99.90;;;;;;5036697;28;20173;-89
2023/10/20 01:06:51;;;;;;;23.87;18.87;;;14.60;99.90;;;;;;5036225;28;20193;-88
2023/10/20 01:09:26;;;;;;;22.50;19.30;;;14.60;99.90;;;;;;5036248;28;20181;-88
2023/10/20 01:11:53;;;;;;;25.00;19.70;;;14.60;99.90;;;;;;5054069;28;20408;-88
2023/10/20 01:14:19;;;;;;;22.33;18.07;;;14.60;99.90;;;;;;5036119;28;20546;-89
2023/10/20 01:16:44;;;;;;;26.97;20.17;;;14.60;99.90;;;;;;5025349;28;20519;-89
2023/10/20 01:19:10;;;;;;;27.10;20.07;;;14.60;99.90;;;;;;5016616;28;20906;-90
2023/10/20 01:21:36;;;;;;;30.27;20.10;;;14.60;99.90;;;;;;5017382;28;20693;-90
2023/10/20 01:24:04;;;;;;;26.17;20.00;;;14.60;99.90;;;;;;5020205;28;20646;-88
2023/10/20 01:26:30;;;;;;;23.13;18.37;;;14.70;99.90;;;;;;5020814;28;20243;-89
2023/10/20 01:28:56;;;;;;;28.80;20.00;;;14.70;99.90;;;;;;5040606;28;20785;-89
2023/10/20 01:31:24;;;;;;;28.77;18.37;;;14.70;99.90;;;;;;5041351;28;20428;-91
2023/10/20 01:33:51;;;;;;;25.10;20.70;;;14.70;99.90;;;;;;5040245;28;20234;-92
2023/10/20 01:36:16;;;;;;;23.37;19.93;;;14.70;99.90;;;;;;5040627;28;20423;-90
2023/10/20 01:38:42;;;;;;;27.83;21.23;;;14.70;99.90;;;;;;5040349;28;20807;-91
2023/10/20 01:41:08;;;;;;;27.63;20.67;;;14.70;99.90;;;;;;5040001;28;20978;-91
2023/10/20 01:43:34;;;;;;;27.20;21.07;;;14.70;99.90;;;;;;5040003;28;20419;-91
2023/10/20 01:46:03;;;;;;;31.63;18.50;;;14.80;99.90;;;;;;5040554;28;20180;-92
2023/10/20 01:48:32;;;;;;;30.43;18.50;;;14.80;99.90;;;;;;5058413;28;20200;-91
2023/10/20 01:51:03;;;;;;;26.90;19.23;;;14.80;99.90;;;;;;5039727;28;20424;-91
2023/10/20 01:53:32;;;;;;;20.33;16.87;;;14.80;99.90;;;;;;5057811;28;20937;-91
2023/10/20 01:55:58;;;;;;;26.07;18.97;;;14.80;99.90;;;;;;5057343;28;20485;-91
2023/10/20 01:58:23;;;;;;;27.53;19.53;;;14.80;99.90;;;;;;5037133;28;20897;-90
2023/10/20 02:00:50;;;;;;;26.43;20.50;;;14.70;99.90;;;;;;5019992;28;20270;-92
2023/10/20 02:03:16;;;;;;;28.30;20.40;;;14.70;99.90;;;;;;5053379;28;20174;-90
2023/10/20 02:05:42;;;;;;;26.53;20.47;;;14.70;99.90;;;;;;5019960;28;20416;-90
2023/10/20 02:08:16;;;;;;;26.07;19.67;;;14.80;99.90;;;;;;5019683;28;20503;-91
2023/10/20 02:10:47;;;;;;;24.23;19.03;;;14.80;99.90;;;;;;5052413;28;20243;-92
2023/10/20 02:13:18;;;;;;;25.83;20.27;;;14.80;99.90;;;;;;5019892;28;20420;-91
2023/10/20 02:16:02;;;;;;;28.13;19.70;;;14.80;99.90;;;;;;5037077;28;20498;-91
2023/10/20 02:18:28;;;;;;;24.43;19.00;;;14.80;99.90;;;;;;5019675;28;20432;-91
2023/10/20 02:20:57;;;;;;;25.53;18.50;;;14.80;99.90;;;;;;5018770;28;20551;-90
2023/10/20 02:23:24;;;;;;;26.83;20.23;;;14.90;99.90;;;;;;5019468;28;20534;-91
2023/10/20 02:26:19;;;;;;;27.03;19.00;;;14.80;99.90;;;;;;5036841;28;20409;-90
2023/10/20 02:28:45;;;;;;;22.90;17.17;;;14.80;99.90;;;;;;5018286;28;20516;-90
2023/10/20 02:31:22;;;;;;;20.27;16.40;;;14.80;99.90;;;;;;5037102;28;20420;-91
2023/10/20 02:33:48;;;;;;;23.17;17.27;;;14.80;99.90;;;;;;5034990;28;20424;-91
2023/10/20 02:36:23;;;;;;;18.67;15.67;;;14.90;99.90;;;;;;5019265;28;20916;-90
2023/10/20 02:38:53;;;;;;;21.53;16.37;;;14.80;99.90;;;;;;5036520;28;20470;-90
2023/10/20 02:41:19;;;;;;;23.47;14.80;;;14.80;99.90;;;;;;5052388;28;20563;-92
2023/10/20 02:43:45;;;;;;;20.67;15.07;;;14.80;99.90;;;;;;5019236;28;20488;-90
2023/10/20 02:46:13;;;;;;;18.40;15.67;;;14.80;99.90;;;;;;5019358;28;20421;-91
2023/10/20 02:48:39;;;;;;;17.57;14.30;;;14.90;99.90;;;;;;5057158;28;20400;-91
2023/10/20 02:51:26;;;;;;;20.30;14.27;;;14.80;99.90;;;;;;5038933;28;20434;-90
2023/10/20 02:53:51;;;;;;;19.27;15.80;;;14.80;99.90;;;;;;5050255;28;20186;-89
2023/10/20 02:56:19;;;;;;;19.60;14.43;;;14.80;99.90;;;;;;5018724;28;20511;-91
2023/10/20 02:58:45;;;;;;;24.03;15.63;;;14.80;99.90;;;;;;5036569;28;20182;-90
2023/10/20 03:01:16;;;;;;;20.57;14.23;;;14.90;99.90;;;;;;5051689;28;20543;-91
2023/10/20 03:03:42;;;;;;;20.13;14.53;;;14.80;99.90;;;;;;5036281;28;20482;-90
2023/10/20 03:06:08;;;;;;;16.77;13.13;;;14.80;99.90;;;;;;5039061;28;20405;-90
2023/10/20 03:08:38;;;;;;;18.97;14.20;;;14.80;99.90;;;;;;5076041;28;20166;-91
2023/10/20 03:11:07;;;;;;;19.90;15.00;;;14.90;99.90;;;;;;5050976;28;20420;-90
2023/10/20 03:13:33;;;;;;;19.20;15.00;;;14.80;99.90;;;;;;5058538;28;20504;-90
2023/10/20 03:15:59;;;;;;;14.90;12.67;;;14.80;99.90;;;;;;5036400;28;20441;-89
2023/10/20 03:18:25;;;;;;;18.17;14.60;;;14.80;99.90;;;;;;5018226;28;20553;-90
2023/10/20 03:20:50;;;;;;;21.40;15.87;;;14.80;99.90;;;;;;5034682;28;20495;-90
2023/10/20 03:23:22;;;;;;;21.07;15.30;;;14.80;99.90;;;;;;5046575;28;20216;-91
2023/10/20 03:25:48;;;;;;;21.53;14.97;;;14.80;99.90;;;;;;5038255;28;20188;-90
2023/10/20 03:28:14;;;;;;;17.40;14.37;;;14.80;99.90;;;;;;5054211;28;20445;-90
2023/10/20 03:30:43;;;;;;;18.37;14.67;;;14.90;99.90;;;;;;5044826;28;20490;-90
2023/10/20 03:33:13;;;;;;;19.40;14.90;;;14.80;99.90;;;;;;5046460;28;20187;-90
2023/10/20 03:35:39;;;;;;;16.57;14.03;;;14.80;99.90;;;;;;5040852;28;20417;-91
2023/10/20 03:38:09;;;;;;;16.63;13.63;;;14.80;99.90;;;;;;5039316;28;20833;-91
2023/10/20 03:40:38;;;;;;;19.53;15.70;;;14.80;99.90;;;;;;5038560;28;20467;-91
2023/10/20 03:43:08;;;;;;;17.00;13.93;;;14.90;99.90;;;;;;5037718;28;20412;-88
2023/10/20 03:45:41;;;;;;;16.53;13.83;;;14.90;99.90;;;;;;5037705;28;20481;-90
2023/10/20 03:48:14;;;;;;;21.83;14.77;;;14.80;99.90;;;;;;5042656;28;20446;-90
2023/10/20 03:50:42;;;;;;;16.63;13.47;;;14.90;99.90;;;;;;5035232;28;20429;-92
2023/10/20 03:53:11;;;;;;;19.27;14.40;;;14.90;99.90;;;;;;5054377;28;20394;-90
2023/10/20 03:55:36;;;;;;;17.77;12.90;;;14.80;99.90;;;;;;5053011;28;20428;-91
2023/10/20 03:58:02;;;;;;;17.17;12.47;;;14.80;99.90;;;;;;5057425;28;20908;-92
2023/10/20 04:00:28;;;;;;;16.40;12.50;;;14.80;99.90;;;;;;5038630;28;20206;-91
2023/10/20 04:02:55;;;;;;;18.90;13.50;;;14.90;99.90;;;;;;5060826;28;20439;-92
2023/10/20 04:05:21;;;;;;;16.60;14.50;;;14.90;99.90;;;;;;5067772;28;20643;-93
2023/10/20 04:07:47;;;;;;;16.53;13.50;;;14.80;99.90;;;;;;5062203;28;20788;-91
2023/10/20 04:10:14;;;;;;;19.43;14.07;;;14.80;99.90;;;;;;5076617;28;20437;-91
2023/10/20 04:12:42;;;;;;;14.70;13.10;;;14.90;99.90;;;;;;5076517;28;20430;-92
2023/10/20 04:15:13;;;;;;;17.57;14.73;;;14.80;99.90;;;;;;5058891;28;20445;-91
2023/10/20 04:17:40;;;;;;;15.90;13.40;;;14.80;99.90;;;;;;5059961;28;20888;-88
2023/10/20 04:20:15;;;;;;;17.57;12.63;;;14.90;99.90;;;;;;5079483;28;20548;-91
2023/10/20 04:22:43;;;;;;;15.57;13.90;;;14.80;99.90;;;;;;5082478;28;20950;-91
2023/10/20 04:25:12;;;;;;;15.50;13.37;;;14.80;99.90;;;;;;5093352;28;20403;-91
2023/10/20 04:27:54;;;;;;;16.10;13.90;;;14.80;99.90;;;;;;5071244;28;20946;-88
2023/10/20 05:07:56;;;;;;;16.70;14.60;;;14.60;99.90;;;;;;5035257;28;20456;-92
2023/10/20 05:10:23;;;;;;;15.63;14.13;;;14.70;99.90;;;;;;5034516;28;20428;-91
2023/10/20 05:12:50;;;;;;;15.63;14.07;;;14.70;99.90;;;;;;5017922;28;20416;-92
2023/10/20 05:15:17;;;;;;;18.43;14.33;;;14.70;99.90;;;;;;5016894;28;20425;-92
2023/10/20 05:17:43;;;;;;;15.50;13.80;;;14.70;99.90;;;;;;5034381;28;20416;-91
2023/10/20 05:20:13;;;;;;;16.50;13.53;;;14.70;99.90;;;;;;5037338;28;20463;-92
2023/10/20 05:22:42;;;;;;;17.63;14.20;;;14.70;99.90;;;;;;5038168;28;20268;-91
2023/10/20 05:25:08;;;;;;;16.30;13.03;;;14.70;99.90;;;;;;5057387;28;20412;-89
2023/10/20 05:27:34;;;;;;;14.43;12.90;;;14.70;99.90;;;;;;5061044;28;20400;-92
2023/10/20 05:30:00;;;;;;;14.10;12.70;;;14.60;99.90;;;;;;5069536;28;20542;-93
2023/10/20 05:32:27;;;;;;;13.80;12.33;;;14.70;99.90;;;;;;5051022;28;20681;-93
2023/10/20 05:34:54;;;;;;;12.73;11.50;;;14.70;99.90;;;;;;5018540;28;20174;-92
2023/10/20 05:37:21;;;;;;;13.33;11.70;;;14.60;99.90;;;;;;5034953;28;20987;-91
2023/10/20 05:39:47;;;;;;;13.60;10.93;;;14.70;99.90;;;;;;5017637;28;20476;-91
2023/10/20 05:42:13;;;;;;;15.07;10.53;;;14.60;99.90;;;;;;5018079;28;20405;-93
2023/10/20 05:44:48;;;;;;;11.50;10.30;;;14.70;99.90;;;;;;5017359;28;20992;-92
2023/10/20 05:47:16;;;;;;;11.10;9.90;;;14.70;99.90;;;;;;5001884;28;20182;-93
2023/10/20 05:49:41;;;;;;;10.00;9.00;;;14.70;99.90;;;;;;5002159;28;20438;-92
2023/10/20 05:52:08;;;;;;;10.63;9.50;;;14.70;99.90;;;;;;5017278;28;20765;-92
2023/10/20 05:54:35;;;;;;;12.40;9.80;;;14.70;99.90;;;;;;5018207;28;20213;-91
2023/10/20 05:57:00;;;;;;;11.60;10.00;;;14.70;99.90;;;;;;5004882;28;20424;-92
2023/10/20 05:59:26;;;;;;;11.70;9.50;;;14.70;99.90;;;;;;5036696;28;20428;-90
2023/10/20 06:01:52;;;;;;;13.07;10.20;;;14.60;99.90;;;;;;5054163;28;20217;-90
2023/10/20 06:04:17;;;;;;;10.50;9.40;;;14.70;99.90;;;;;;5020279;28;20182;-89
2023/10/20 06:06:43;;;;;;;12.67;11.07;;;14.60;99.90;;;;;;5054159;28;20185;-89
2023/10/20 06:09:09;;;;;;;12.00;10.80;;;14.60;99.90;;;;;;5037980;28;20650;-90
2023/10/20 06:11:38;;;;;;;14.20;10.93;;;14.60;99.90;;;;;;5039749;28;20431;-88
2023/10/20 06:14:04;;;;;;;11.77;10.67;;;14.60;99.90;;;;;;5039320;28;20216;-89
2023/10/20 06:16:30;;;;;;;11.43;10.23;;;14.60;99.90;;;;;;5022973;28;20416;-91
2023/10/20 06:18:56;;;;;;;13.60;11.30;;;14.60;99.90;;;;;;5057218;28;20404;-89
2023/10/20 06:21:22;;;;;;;9.67;8.67;;;14.60;99.90;;;;;;5038713;28;20901;-87
2023/10/20 06:23:49;;;;;;;12.87;10.03;;;14.60;99.90;;;;;;5056829;28;20174;-87
2023/10/20 06:26:15;;;;;;;10.57;9.57;;;14.60;99.90;;;;;;5056556;28;20499;-87
2023/10/20 06:28:41;;;;;;;9.70;8.70;;;14.60;99.90;;;;;;5056698;28;20735;-88
2023/10/20 06:32:19;;;;;;;11.07;8.40;;;14.60;99.90;;;;;;5038100;28;20420;-87
2023/10/20 06:34:22;;;;;;;11.47;8.07;;;14.60;99.90;;;;;;5042548;28;20903;-88
2023/10/20 06:36:48;;;;;;;10.10;8.83;;;14.70;99.90;;;;;;5056285;28;20423;-87
2023/10/20 06:39:14;;;;;;;11.70;8.40;;;14.60;99.90;;;;;;5038375;28;20416;-87
2023/10/20 06:41:44;;;;;;;8.87;7.97;;;14.60;99.90;;;;;;5038396;28;20216;-86
2023/10/20 06:44:09;;;;;;;9.00;7.90;;;14.60;99.90;;;;;;5037911;28;20419;-79
2023/10/20 06:46:35;;;;;;;8.10;7.30;;;14.60;99.90;;;;;;5039595;28;20464;-78
2023/10/20 06:49:01;;;;;;;10.53;8.20;;;14.60;99.90;;;;;;5002159;28;20552;-83
2023/10/20 06:51:26;;;;;;;7.47;6.87;;;14.50;99.90;;;;;;5035908;28;20188;-80
2023/10/20 06:53:52;;;;;;;9.83;7.97;;;14.60;99.90;;;;;;5018083;28;20178;-79
2023/10/20 06:56:17;;;;;;;8.93;7.90;;;14.60;99.90;;;;;;5001673;28;20185;-79
2023/10/20 06:58:44;;;;;;;10.67;7.20;;;14.60;99.90;;;;;;5001882;28;20549;-79
2023/10/20 07:01:09;;;;;;;10.27;7.93;;;14.50;99.90;;;;;;5037179;28;20256;-77
2023/10/20 07:03:35;;;;;;;9.10;8.20;;;14.50;99.90;;;;;;5048546;28;20881;-76
2023/10/20 07:06:01;;;;;;;9.77;8.20;;;14.50;99.90;;;;;;5056728;28;20448;-75
2023/10/20 07:08:27;;;;;;;11.90;9.27;;;14.50;99.90;;;;;;5038622;28;20196;-76
2023/10/20 07:10:52;;;;;;;10.17;7.90;;;14.50;99.90;;;;;;5057109;28;20694;-77
2023/10/20 07:13:18;;;;;;;9.90;7.97;;;14.50;99.90;;;;;;5038409;28;20178;-77
2023/10/20 07:15:44;;;;;;;8.83;7.93;;;14.50;99.90;;;;;;5021996;28;20569;-77
2023/10/20 07:18:13;;;;;;;9.67;7.50;;;14.50;99.90;;;;;;5038897;28;20246;-77
2023/10/20 07:20:39;;;;;;;7.70;6.90;;;14.40;99.90;;;;;;5056011;28;20947;-77
2023/10/20 07:23:08;;;;;;;7.97;7.17;;;14.50;99.90;;;;;;5021283;28;20430;-77
2023/10/20 07:25:34;;;;;;;12.70;8.50;;;14.50;99.90;;;;;;5056368;28;20170;-77
2023/10/20 07:27:59;;;;;;;12.00;7.90;;;14.50;99.90;;;;;;5038338;28;20416;-77
2023/10/20 07:30:29;;;;;;;8.97;7.57;;;14.50;99.90;;;;;;5037916;28;20477;-77
2023/10/20 07:32:54;;;;;;;9.23;8.00;;;14.50;99.90;;;;;;5056537;28;20409;-77
2023/10/20 07:35:21;;;;;;;9.33;6.80;;;14.50;99.90;;;;;;5038011;28;20900;-77
2023/10/20 07:37:47;;;;;;;10.43;7.23;;;14.50;99.90;;;;;;5007649;28;20230;-77
2023/10/20 07:40:13;;;;;;;8.07;7.27;;;14.50;99.90;;;;;;5015007;28;20491;-77
2023/10/20 07:42:39;;;;;;;10.17;7.37;;;14.50;99.90;;;;;;4999053;28;20182;-77
2023/10/20 07:45:08;;;;;;;10.57;7.70;;;14.50;99.90;;;;;;5016235;28;20418;-79
2023/10/20 07:47:34;;;;;;;8.40;7.07;;;14.50;99.90;;;;;;5015233;28;20449;-77
2023/10/20 07:50:00;;;;;;;10.30;8.30;;;14.50;99.90;;;;;;5018355;28;20429;-77
2023/10/20 07:52:26;;;;;;;10.30;9.00;;;14.50;99.90;;;;;;5017750;28;20578;-76
2023/10/20 07:54:52;;;;;;;10.13;9.00;;;14.50;99.90;;;;;;5016325;28;20417;-76
2023/10/20 07:57:19;;;;;;;12.07;10.77;;;14.50;99.90;;;;;;5014650;28;20425;-76
2023/10/20 07:59:46;;;;;;;13.07;11.30;;;14.60;99.90;;;;;;5014658;28;20537;-76
2023/10/20 08:02:11;;;;;;;13.53;11.00;;;14.50;99.90;;;;;;5015708;28;20542;-77
2023/10/20 08:04:37;;;;;;;15.93;12.47;;;14.50;99.90;;;;;;5015959;28;20461;-76
2023/10/20 08:07:04;;;;;;;18.20;12.53;;;14.60;99.90;;;;;;5016023;28;20179;-76
2023/10/20 08:09:30;;;;;;;12.93;10.83;;;14.60;99.90;;;;;;5015616;28;20194;-76
2023/10/20 08:11:56;;;;;;;14.17;12.77;;;14.60;99.90;;;;;;5014629;28;20817;-76
2023/10/20 08:14:23;;;;;;;13.20;11.80;;;14.60;99.90;;;;;;5014510;28;20430;-76
2023/10/20 08:16:49;;;;;;;15.80;12.53;;;14.70;99.90;;;;;;5016062;28;20445;-77
2023/10/20 08:19:15;;;;;;;15.30;11.90;;;14.70;99.90;;;;;;5013813;28;20422;-77
2023/10/20 08:21:42;;;;;;;16.23;13.00;;;14.70;99.90;;;;;;5015860;28;20464;-76
2023/10/20 08:24:08;;;;;;;18.10;12.70;;;14.60;99.90;;;;;;5014482;28;20445;-78
2023/10/20 08:26:33;;;;;;;12.67;11.37;;;14.60;99.90;;;;;;5015881;28;20811;-76
2023/10/20 08:28:59;;;;;;;13.57;12.27;;;14.60;99.90;;;;;;4997914;28;20449;-77
2023/10/20 08:31:25;;;;;;;14.53;12.93;;;14.70;99.90;;;;;;5014566;28;20187;-76
2023/10/20 08:33:52;;;;;;;15.53;12.63;;;14.70;99.90;;;;;;5015055;28;20178;-76
2023/10/20 08:36:22;;;;;;;17.73;14.13;;;14.70;99.90;;;;;;5013970;28;20438;-76
2023/10/20 08:38:49;;;;;;;16.77;13.03;;;14.70;99.90;;;;;;5014114;28;20470;-76
2023/10/20 08:41:17;;;;;;;13.87;12.40;;;14.70;99.90;;;;;;5015238;28;20461;-77
2023/10/20 08:43:44;;;;;;;16.33;13.77;;;14.70;99.90;;;;;;5015627;28;20449;-76
2023/10/20 08:46:11;;;;;;;16.80;14.00;;;14.70;99.90;;;;;;5013741;28;20929;-77
2023/10/20 08:48:41;;;;;;;16.07;14.27;;;14.70;99.90;;;;;;5013815;28;20393;-77
2023/10/20 08:51:08;;;;;;;17.03;14.63;;;14.70;99.90;;;;;;5015048;28;20418;-77
2023/10/20 08:53:36;;;;;;;17.50;14.10;;;14.70;99.90;;;;;;5015261;28;20404;-77
2023/10/20 08:56:03;;;;;;;23.00;13.73;;;14.70;99.90;;;;;;5013584;28;20422;-76
2023/10/20 08:58:30;;;;;;;19.10;15.03;;;14.70;99.90;;;;;;5014373;28;20922;-76
2023/10/20 09:00:57;;;;;;;17.00;13.73;;;14.70;99.90;;;;;;5014599;28;20948;-77
2023/10/20 09:03:25;;;;;;;19.83;15.13;;;14.70;99.90;;;;;;5014475;28;20421;-76
2023/10/20 09:06:05;;;;;;;22.07;17.03;;;14.70;99.90;;;;;;5015149;28;20421;-76
2023/10/20 09:08:31;;;;;;;21.17;16.60;;;14.80;99.90;;;;;;5014797;28;20776;-77
2023/10/20 09:10:56;;;;;;;19.53;17.03;;;14.80;99.90;;;;;;5014821;28;20413;-76
2023/10/20 09:13:30;;;;;;;20.93;17.60;;;14.80;99.90;;;;;;5014644;28;20213;-77
2023/10/20 09:15:55;;;;;;;20.93;17.20;;;14.70;99.90;;;;;;5015142;28;20175;-76
2023/10/20 09:18:22;;;;;;;21.50;17.17;;;14.70;99.90;;;;;;5014812;28;20425;-76
2023/10/20 09:20:47;;;;;;;19.27;16.77;;;14.70;99.90;;;;;;5013853;28;20217;-76
2023/10/20 09:23:13;;;;;;;23.90;18.37;;;14.70;99.90;;;;;;5014556;28;20414;-76
2023/10/20 09:25:39;;;;;;;21.17;15.63;;;14.70;99.90;;;;;;5014884;28;20265;-76
2023/10/20 09:28:05;;;;;;;20.67;16.87;;;14.70;99.90;;;;;;5014937;28;20592;-77
2023/10/20 09:30:32;;;;;;;18.13;16.23;;;14.70;99.90;;;;;;5011905;28;20511;-76
2023/10/20 09:32:58;;;;;;;21.17;17.03;;;14.70;99.90;;;;;;5004891;28;20226;-77
2023/10/20 09:35:25;;;;;;;19.40;16.77;;;14.80;99.90;;;;;;4995041;28;20434;-76
2023/10/20 09:37:54;;;;;;;22.63;17.40;;;14.80;99.90;;;;;;5016410;28;20226;-77
2023/10/20 09:40:20;;;;;;;19.90;16.07;;;14.80;99.90;;;;;;5034223;28;20468;-77
2023/10/20 09:43:01;;;;;;;22.83;16.50;;;14.80;99.90;;;;;;5034971;28;20423;-76
2023/10/20 09:45:36;;;;;;;18.07;14.90;;;14.80;99.90;;;;;;5037657;28;20417;-77
2023/10/20 09:48:06;;;;;;;19.63;17.47;;;14.80;99.90;;;;;;5038467;28;20961;-76
2023/10/20 09:50:33;;;;;;;20.80;17.53;;;14.70;99.90;;;;;;5037966;28;20412;-77
2023/10/20 09:52:59;;;;;;;22.47;18.07;;;14.70;99.90;;;;;;5038084;28;20830;-77
2023/10/20 09:55:26;;;;;;;21.37;17.73;;;14.80;99.90;;;;;;5038009;28;20439;-76
2023/10/20 09:57:52;;;;;;;19.83;16.47;;;14.80;99.90;;;;;;5038476;28;20420;-77
2023/10/20 10:00:41;;;;;;;22.40;17.07;;;14.80;99.90;;;;;;5020117;28;20548;-77
2023/10/20 10:03:08;;;;;;;17.17;15.20;;;14.90;99.90;;;;;;5038264;28;20432;-76
2023/10/20 10:05:36;;;;;;;20.20;16.20;;;14.80;99.90;;;;;;5038074;28;20511;-76
2023/10/20 10:08:06;;;;;;;19.50;16.90;;;14.90;99.90;;;;;;5040875;28;20455;-76
2023/10/20 10:10:33;;;;;;;17.10;15.40;;;14.90;99.90;;;;;;5040804;28;20782;-76
2023/10/20 10:13:06;;;;;;;19.70;16.30;;;14.90;99.90;;;;;;5020408;28;20520;-76
2023/10/20 10:15:46;;;;;;;18.93;15.07;;;15.00;99.90;;;;;;5020080;28;20499;-76
2023/10/20 10:18:13;;;;;;;18.30;14.80;;;15.00;99.90;;;;;;5036860;28;20914;-76
2023/10/20 10:20:46;;;;;;;17.10;15.30;;;15.00;99.90;;;;;;5037511;28;20972;-76
2023/10/20 10:23:14;;;;;;;17.83;15.90;;;15.10;99.90;;;;;;5037465;28;20413;-76
2023/10/20 10:25:41;;;;;;;17.73;15.30;;;15.10;99.90;;;;;;5019765;28;20462;-76
2023/10/20 10:28:14;;;;;;;20.27;15.10;;;15.10;99.90;;;;;;5037443;28;20432;-77
2023/10/20 10:30:41;;;;;;;17.70;14.90;;;15.20;99.90;;;;;;5036675;28;20417;-77
2023/10/20 10:33:10;;;;;;;16.90;14.10;;;15.20;99.90;;;;;;5042711;28;20491;-76
2023/10/20 10:35:40;;;;;;;18.10;15.50;;;15.30;99.90;;;;;;5057354;28;20744;-76
2023/10/20 10:38:20;;;;;;;16.50;14.60;;;15.50;99.90;;;;;;5056927;28;20463;-76
2023/10/20 10:40:47;;;;;;;18.50;14.90;;;15.50;99.90;;;;;;5039512;28;20446;-76
2023/10/20 10:43:18;;;;;;;21.10;14.90;;;15.40;99.90;;;;;;5039804;28;20436;-77
2023/10/20 10:45:44;;;;;;;21.30;15.60;;;15.40;99.90;;;;;;5019918;28;20496;-77
2023/10/20 10:48:18;;;;;;;17.73;14.70;;;15.40;99.90;;;;;;5019539;28;20407;-76
2023/10/20 10:50:45;;;;;;;18.77;14.83;;;15.40;99.90;;;;;;5037690;28;20409;-77
2023/10/20 10:53:12;;;;;;;17.40;14.20;;;15.40;99.90;;;;;;5037054;28;20408;-77
2023/10/20 10:55:38;;;;;;;16.37;14.23;;;15.40;99.90;;;;;;5043798;28;20444;-77
2023/10/20 10:58:12;;;;;;;14.67;13.20;;;15.40;99.90;;;;;;5057024;28;20530;-77
2023/10/20 11:00:39;;;;;;;16.63;14.20;;;15.30;99.90;;;;;;5056740;28;20468;-77
2023/10/20 11:03:06;;;;;;;14.80;13.20;;;15.30;99.90;;;;;;5039322;28;20419;-77
2023/10/20 11:05:35;;;;;;;19.10;14.23;;;15.30;99.90;;;;;;5056336;28;20443;-77
2023/10/20 11:08:11;;;;;;;14.90;13.20;;;15.20;99.90;;;;;;5057310;28;20821;-74
2023/10/20 11:10:41;;;;;;;16.03;13.77;;;15.20;99.90;;;;;;5038290;28;20434;-76
2023/10/20 11:13:10;;;;;;;16.93;13.47;;;15.20;99.90;;;;;;5039750;28;20416;-77
2023/10/20 11:15:36;;;;;;;17.17;13.20;;;15.20;99.90;;;;;;5056220;28;20907;-77
2023/10/20 11:18:06;;;;;;;15.87;12.90;;;15.20;99.90;;;;;;5056381;28;20876;-77
2023/10/20 11:20:37;;;;;;;19.03;14.93;;;15.20;99.90;;;;;;5038375;28;20471;-77
2023/10/20 11:23:05;;;;;;;16.03;13.33;;;15.20;99.90;;;;;;5056695;28;20853;-77
2023/10/20 11:25:31;;;;;;;17.03;14.20;;;15.20;99.90;;;;;;5056391;28;20454;-77
2023/10/20 11:27:57;;;;;;;18.13;15.00;;;15.30;99.90;;;;;;5055933;28;20808;-77
2023/10/20 11:30:31;;;;;;;17.80;14.13;;;15.30;99.90;;;;;;5038264;28;20299;-77
2023/10/20 11:32:57;;;;;;;17.57;13.67;;;15.30;99.90;;;;;;5056081;28;20469;-77
2023/10/20 11:35:24;;;;;;;15.20;13.43;;;15.40;99.90;;;;;;5038456;28;20450;-77
2023/10/20 11:37:51;;;;;;;17.63;14.00;;;15.30;99.90;;;;;;5038162;28;20486;-78
2023/10/20 11:40:17;;;;;;;14.53;12.80;;;15.30;99.90;;;;;;5055904;28;20459;-77
2023/10/20 11:42:42;;;;;;;15.90;14.20;;;15.30;99.90;;;;;;5056043;28;20412;-77
2023/10/20 11:45:10;;;;;;;19.27;12.67;;;15.40;99.90;;;;;;5056051;28;20408;-77
2023/10/20 11:47:36;;;;;;;15.20;12.10;;;15.30;99.90;;;;;;5055391;28;20412;-78
2023/10/20 11:50:02;;;;;;;14.73;13.13;;;15.30;99.90;;;;;;5038403;28;20753;-77
2023/10/20 11:52:28;;;;;;;13.93;12.60;;;15.30;99.90;;;;;;5037964;28;20518;-77
2023/10/20 11:54:54;;;;;;;16.10;11.90;;;15.30;99.90;;;;;;5004883;28;20427;-77
2023/10/20 11:57:20;;;;;;;13.57;12.20;;;15.20;99.90;;;;;;5037540;28;20474;-78
2023/10/20 11:59:46;;;;;;;12.77;11.47;;;15.20;99.90;;;;;;5055172;28;20178;-77
2023/10/20 12:02:12;;;;;;;14.10;12.60;;;15.20;99.90;;;;;;5037843;28;20432;-78
2023/10/20 12:04:38;;;;;;;14.17;12.67;;;15.20;99.90;;;;;;5037172;28;20193;-77
2023/10/20 12:07:03;;;;;;;13.40;11.97;;;15.10;99.90;;;;;;5037026;28;20186;-77
2023/10/20 12:09:29;;;;;;;13.60;11.47;;;15.10;99.90;;;;;;5037091;28;20209;-77
2023/10/20 12:11:55;;;;;;;13.03;11.73;;;15.20;99.90;;;;;;5055184;28;20177;-77
2023/10/20 12:14:21;;;;;;;18.57;14.60;;;15.20;99.90;;;;;;5055062;28;20413;-79
2023/10/20 12:16:46;;;;;;;16.50;14.13;;;15.20;99.90;;;;;;5054710;28;20188;-78
2023/10/20 12:19:12;;;;;;;17.53;12.77;;;15.20;99.90;;;;;;5037534;28;20188;-78
2023/10/20 12:21:38;;;;;;;16.57;14.87;;;15.30;99.90;;;;;;5020105;28;20669;-77
2023/10/20 12:24:05;;;;;;;19.63;15.13;;;15.30;99.90;;;;;;5054911;28;20182;-77
2023/10/20 12:26:30;;;;;;;15.17;13.67;;;15.40;99.90;;;;;;5039944;28;20181;-79
2023/10/20 12:28:56;;;;;;;14.70;13.20;;;15.40;99.90;;;;;;5044497;28;20417;-77
2023/10/20 12:31:24;;;;;;;18.50;15.37;;;15.60;99.90;;;;;;5037486;28;20189;-78
2023/10/20 12:33:50;;;;;;;16.10;14.40;;;15.60;99.90;;;;;;5055254;28;20412;-78
2023/10/20 12:36:19;;;;;;;20.13;17.60;;;15.50;99.90;;;;;;5019456;28;20458;-83
2023/10/20 12:38:44;;;;;;;23.07;16.97;;;15.60;99.90;;;;;;5035547;28;20471;-84
2023/10/20 12:41:11;;;;;;;24.20;17.47;;;15.60;99.90;;;;;;5019944;28;20482;-84
2023/10/20 12:43:37;;;;;;;20.97;16.60;;;15.70;99.90;;;;;;5019434;28;20227;-82
2023/10/20 12:46:04;;;;;;;29.07;17.90;;;15.60;99.90;;;;;;5054224;28;20404;-83
2023/10/20 12:48:30;;;;;;;34.70;20.40;;;15.70;99.90;;;;;;5036545;28;20977;-83
2023/10/20 12:50:56;;;;;;;26.50;15.80;;;15.70;99.90;;;;;;5036523;28;20428;-83
2023/10/20 12:53:23;;;;;;;25.37;16.83;;;15.70;99.90;;;;;;5036307;28;20181;-83
2023/10/20 12:55:49;;;;;;;17.07;12.57;;;15.60;99.90;;;;;;5054196;28;20404;-83
2023/10/20 12:58:14;;;;;;;14.23;11.10;;;15.70;99.90;;;;;;5036274;28;20783;-84
2023/10/20 13:00:40;;;;;;;11.27;10.10;;;15.60;99.90;;;;;;5035467;28;20471;-83
2023/10/20 13:03:06;;;;;;;13.43;11.50;;;15.50;99.90;;;;;;5053698;28;20202;-83
2023/10/20 13:05:33;;;;;;;12.17;10.87;;;15.60;99.90;;;;;;5036112;28;20915;-82
2023/10/20 13:07:59;;;;;;;12.90;11.60;;;15.70;99.90;;;;;;5035638;28;20443;-83